sensor_id;sensor_type;location;lat;lon;timestamp;P1;durP1;ratioP1;P2;durP2;ratioP2
18610;SDS011;9435;52.122;5.502;2022-07-10T00:01:34;4.72;;;1.20;;
18610;SDS011;9435;52.122;5.502;2022-07-10T00:04:01;5.18;;;1.40;;
18610;SDS011;9435;52.122;5.502;2022-07-10T00:06:28;5.38;;;1.23;;
18610;SDS011;9435;52.122;5.502;2022-07-10T00:08:55;6.03;;;1.35;;
18610;SDS011;9435;52.122;5.502;2022-07-10T00:11:22;4.10;;;1.10;;
18610;SDS011;9435;52.122;5.502;2022-07-10T00:13:49;5.50;;;1.30;;
18610;SDS011;9435;52.122;5.502;2022-07-10T00:16:17;5.25;;;1.30;;
18610;SDS011;9435;52.122;5.502;2022-07-10T00:18:44;6.72;;;1.45;;
18610;SDS011;9435;52.122;5.502;2022-07-10T00:21:11;4.38;;;1.20;;
18610;SDS011;9435;52.122;5.502;2022-07-10T00:23:38;6.93;;;1.30;;
18610;SDS011;9435;52.122;5.502;2022-07-10T00:26:05;4.97;;;1.23;;
18610;SDS011;9435;52.122;5.502;2022-07-10T00:28:32;7.22;;;1.40;;
18610;SDS011;9435;52.122;5.502;2022-07-10T00:30:59;4.90;;;1.40;;
18610;SDS011;9435;52.122;5.502;2022-07-10T00:33:28;4.60;;;1.30;;
18610;SDS011;9435;52.122;5.502;2022-07-10T00:35:56;6.20;;;1.30;;
18610;SDS011;9435;52.122;5.502;2022-07-10T00:38:23;4.30;;;1.20;;
18610;SDS011;9435;52.122;5.502;2022-07-10T00:40:50;6.20;;;1.30;;
18610;SDS011;9435;52.122;5.502;2022-07-10T00:43:17;5.82;;;1.48;;
18610;SDS011;9435;52.122;5.502;2022-07-10T00:45:44;4.75;;;1.20;;
18610;SDS011;9435;52.122;5.502;2022-07-10T00:48:11;7.45;;;1.48;;
18610;SDS011;9435;52.122;5.502;2022-07-10T00:50:39;3.05;;;1.02;;
18610;SDS011;9435;52.122;5.502;2022-07-10T00:53:07;5.35;;;1.42;;
18610;SDS011;9435;52.122;5.502;2022-07-10T00:55:35;5.22;;;1.40;;
18610;SDS011;9435;52.122;5.502;2022-07-10T00:58:04;4.13;;;1.40;;
18610;SDS011;9435;52.122;5.502;2022-07-10T01:00:32;7.25;;;1.13;;
18610;SDS011;9435;52.122;5.502;2022-07-10T01:03:02;7.55;;;1.42;;
18610;SDS011;9435;52.122;5.502;2022-07-10T01:05:29;5.85;;;1.45;;
18610;SDS011;9435;52.122;5.502;2022-07-10T01:07:58;6.88;;;1.73;;
18610;SDS011;9435;52.122;5.502;2022-07-10T01:10:25;5.78;;;1.60;;
18610;SDS011;9435;52.122;5.502;2022-07-10T01:12:52;7.10;;;1.50;;
18610;SDS011;9435;52.122;5.502;2022-07-10T01:15:20;6.07;;;1.63;;
18610;SDS011;9435;52.122;5.502;2022-07-10T01:17:47;4.57;;;1.30;;
18610;SDS011;9435;52.122;5.502;2022-07-10T01:20:18;5.93;;;1.42;;
18610;SDS011;9435;52.122;5.502;2022-07-10T01:22:46;5.88;;;1.20;;
18610;SDS011;9435;52.122;5.502;2022-07-10T01:25:13;7.55;;;1.55;;
18610;SDS011;9435;52.122;5.502;2022-07-10T01:27:40;5.60;;;1.52;;
18610;SDS011;9435;52.122;5.502;2022-07-10T01:30:08;3.20;;;1.30;;
18610;SDS011;9435;52.122;5.502;2022-07-10T01:32:36;7.63;;;1.50;;
18610;SDS011;9435;52.122;5.502;2022-07-10T01:35:04;6.63;;;1.55;;
18610;SDS011;9435;52.122;5.502;2022-07-10T01:37:32;8.23;;;1.40;;
18610;SDS011;9435;52.122;5.502;2022-07-10T01:40:00;4.78;;;1.50;;
18610;SDS011;9435;52.122;5.502;2022-07-10T01:42:27;6.63;;;1.40;;
18610;SDS011;9435;52.122;5.502;2022-07-10T01:44:54;2.92;;;1.10;;
18610;SDS011;9435;52.122;5.502;2022-07-10T01:47:21;6.03;;;1.40;;
18610;SDS011;9435;52.122;5.502;2022-07-10T01:49:52;3.65;;;1.20;;
18610;SDS011;9435;52.122;5.502;2022-07-10T01:52:19;4.68;;;1.50;;
18610;SDS011;9435;52.122;5.502;2022-07-10T01:54:46;4.18;;;1.13;;
18610;SDS011;9435;52.122;5.502;2022-07-10T01:57:14;4.88;;;1.23;;
18610;SDS011;9435;52.122;5.502;2022-07-10T01:59:42;5.38;;;1.30;;
18610;SDS011;9435;52.122;5.502;2022-07-10T02:02:09;5.30;;;1.30;;
18610;SDS011;9435;52.122;5.502;2022-07-10T02:04:36;5.45;;;1.30;;
18610;SDS011;9435;52.122;5.502;2022-07-10T02:07:08;4.22;;;1.40;;
18610;SDS011;9435;52.122;5.502;2022-07-10T02:09:35;4.60;;;1.38;;
18610;SDS011;9435;52.122;5.502;2022-07-10T02:12:04;3.78;;;1.38;;
18610;SDS011;9435;52.122;5.502;2022-07-10T02:14:33;5.57;;;1.35;;
18610;SDS011;9435;52.122;5.502;2022-07-10T02:17:00;7.00;;;1.50;;
18610;SDS011;9435;52.122;5.502;2022-07-10T02:19:27;6.55;;;1.45;;
18610;SDS011;9435;52.122;5.502;2022-07-10T02:21:54;6.20;;;1.42;;
18610;SDS011;9435;52.122;5.502;2022-07-10T02:24:21;4.60;;;1.40;;
18610;SDS011;9435;52.122;5.502;2022-07-10T02:26:48;6.53;;;1.42;;
18610;SDS011;9435;52.122;5.502;2022-07-10T02:29:15;4.93;;;1.23;;
18610;SDS011;9435;52.122;5.502;2022-07-10T02:31:44;4.90;;;1.30;;
18610;SDS011;9435;52.122;5.502;2022-07-10T02:34:11;8.18;;;1.55;;
18610;SDS011;9435;52.122;5.502;2022-07-10T02:36:39;4.38;;;1.40;;
18610;SDS011;9435;52.122;5.502;2022-07-10T02:39:07;6.78;;;1.20;;
18610;SDS011;9435;52.122;5.502;2022-07-10T02:41:35;7.90;;;1.58;;
18610;SDS011;9435;52.122;5.502;2022-07-10T02:44:02;7.10;;;1.50;;
18610;SDS011;9435;52.122;5.502;2022-07-10T02:46:29;4.15;;;1.20;;
18610;SDS011;9435;52.122;5.502;2022-07-10T02:48:57;6.38;;;1.45;;
18610;SDS011;9435;52.122;5.502;2022-07-10T02:51:24;4.88;;;1.20;;
18610;SDS011;9435;52.122;5.502;2022-07-10T02:53:51;5.50;;;1.20;;
18610;SDS011;9435;52.122;5.502;2022-07-10T02:56:18;5.72;;;1.38;;
18610;SDS011;9435;52.122;5.502;2022-07-10T02:58:45;5.13;;;1.40;;
18610;SDS011;9435;52.122;5.502;2022-07-10T03:01:12;6.32;;;1.30;;
18610;SDS011;9435;52.122;5.502;2022-07-10T03:03:39;3.92;;;1.20;;
18610;SDS011;9435;52.122;5.502;2022-07-10T03:06:08;4.60;;;1.40;;
18610;SDS011;9435;52.122;5.502;2022-07-10T03:08:35;5.78;;;1.33;;
18610;SDS011;9435;52.122;5.502;2022-07-10T03:11:02;3.90;;;1.20;;
18610;SDS011;9435;52.122;5.502;2022-07-10T03:13:29;4.03;;;1.30;;
18610;SDS011;9435;52.122;5.502;2022-07-10T03:15:56;4.78;;;1.42;;
18610;SDS011;9435;52.122;5.502;2022-07-10T03:18:23;4.68;;;1.38;;
18610;SDS011;9435;52.122;5.502;2022-07-10T03:20:50;5.85;;;1.50;;
18610;SDS011;9435;52.122;5.502;2022-07-10T03:23:19;3.67;;;1.30;;
18610;SDS011;9435;52.122;5.502;2022-07-10T03:25:46;5.15;;;1.48;;
18610;SDS011;9435;52.122;5.502;2022-07-10T03:28:13;6.15;;;1.30;;
18610;SDS011;9435;52.122;5.502;2022-07-10T03:30:40;6.70;;;1.40;;
18610;SDS011;9435;52.122;5.502;2022-07-10T03:33:07;5.30;;;1.40;;
18610;SDS011;9435;52.122;5.502;2022-07-10T03:35:34;6.15;;;1.50;;
18610;SDS011;9435;52.122;5.502;2022-07-10T03:38:01;7.72;;;1.52;;
18610;SDS011;9435;52.122;5.502;2022-07-10T03:40:29;7.50;;;1.50;;
18610;SDS011;9435;52.122;5.502;2022-07-10T03:42:56;6.50;;;1.40;;
18610;SDS011;9435;52.122;5.502;2022-07-10T03:45:23;7.68;;;1.20;;
18610;SDS011;9435;52.122;5.502;2022-07-10T03:47:50;5.93;;;1.33;;
18610;SDS011;9435;52.122;5.502;2022-07-10T03:50:17;6.40;;;1.48;;
18610;SDS011;9435;52.122;5.502;2022-07-10T03:52:45;5.45;;;1.45;;
18610;SDS011;9435;52.122;5.502;2022-07-10T03:55:12;7.95;;;1.48;;
18610;SDS011;9435;52.122;5.502;2022-07-10T03:57:40;7.40;;;1.30;;
18610;SDS011;9435;52.122;5.502;2022-07-10T04:00:18;5.72;;;1.40;;
18610;SDS011;9435;52.122;5.502;2022-07-10T04:02:48;5.20;;;1.30;;
18610;SDS011;9435;52.122;5.502;2022-07-10T04:05:20;5.68;;;1.40;;
18610;SDS011;9435;52.122;5.502;2022-07-10T04:07:47;5.50;;;1.40;;
18610;SDS011;9435;52.122;5.502;2022-07-10T04:10:14;5.38;;;1.60;;
18610;SDS011;9435;52.122;5.502;2022-07-10T04:12:43;9.35;;;1.40;;
18610;SDS011;9435;52.122;5.502;2022-07-10T04:15:10;7.18;;;1.42;;
18610;SDS011;9435;52.122;5.502;2022-07-10T04:17:38;8.80;;;1.65;;
18610;SDS011;9435;52.122;5.502;2022-07-10T04:20:05;7.75;;;1.70;;
18610;SDS011;9435;52.122;5.502;2022-07-10T04:22:33;6.15;;;1.20;;
18610;SDS011;9435;52.122;5.502;2022-07-10T04:25:00;7.63;;;1.40;;
18610;SDS011;9435;52.122;5.502;2022-07-10T04:27:27;6.53;;;1.27;;
18610;SDS011;9435;52.122;5.502;2022-07-10T04:29:56;7.80;;;1.45;;
18610;SDS011;9435;52.122;5.502;2022-07-10T04:32:23;6.93;;;1.20;;
18610;SDS011;9435;52.122;5.502;2022-07-10T04:34:50;4.88;;;1.38;;
18610;SDS011;9435;52.122;5.502;2022-07-10T04:37:17;7.63;;;1.45;;
18610;SDS011;9435;52.122;5.502;2022-07-10T04:39:44;8.00;;;1.40;;
18610;SDS011;9435;52.122;5.502;2022-07-10T04:42:11;8.60;;;1.75;;
18610;SDS011;9435;52.122;5.502;2022-07-10T04:44:38;6.03;;;1.23;;
18610;SDS011;9435;52.122;5.502;2022-07-10T04:47:07;7.63;;;1.38;;
18610;SDS011;9435;52.122;5.502;2022-07-10T04:49:34;8.55;;;1.55;;
18610;SDS011;9435;52.122;5.502;2022-07-10T04:52:01;8.35;;;1.65;;
18610;SDS011;9435;52.122;5.502;2022-07-10T04:54:28;7.15;;;1.20;;
18610;SDS011;9435;52.122;5.502;2022-07-10T04:56:55;5.55;;;1.30;;
18610;SDS011;9435;52.122;5.502;2022-07-10T04:59:22;7.40;;;1.80;;
18610;SDS011;9435;52.122;5.502;2022-07-10T05:01:49;10.02;;;1.50;;
18610;SDS011;9435;52.122;5.502;2022-07-10T05:04:18;7.28;;;1.60;;
18610;SDS011;9435;52.122;5.502;2022-07-10T05:06:45;5.28;;;1.50;;
18610;SDS011;9435;52.122;5.502;2022-07-10T05:09:12;6.72;;;1.30;;
18610;SDS011;9435;52.122;5.502;2022-07-10T05:11:39;8.73;;;1.42;;
18610;SDS011;9435;52.122;5.502;2022-07-10T05:14:05;6.15;;;1.40;;
18610;SDS011;9435;52.122;5.502;2022-07-10T05:16:32;7.18;;;1.70;;
18610;SDS011;9435;52.122;5.502;2022-07-10T05:18:59;6.05;;;1.60;;
18610;SDS011;9435;52.122;5.502;2022-07-10T05:21:28;9.48;;;1.70;;
18610;SDS011;9435;52.122;5.502;2022-07-10T05:23:55;6.35;;;1.50;;
18610;SDS011;9435;52.122;5.502;2022-07-10T05:26:22;8.68;;;1.90;;
18610;SDS011;9435;52.122;5.502;2022-07-10T05:28:49;10.27;;;1.60;;
18610;SDS011;9435;52.122;5.502;2022-07-10T05:31:16;10.70;;;1.98;;
18610;SDS011;9435;52.122;5.502;2022-07-10T05:33:43;11.48;;;1.70;;
18610;SDS011;9435;52.122;5.502;2022-07-10T05:36:10;8.73;;;1.88;;
18610;SDS011;9435;52.122;5.502;2022-07-10T05:38:38;9.25;;;1.83;;
18610;SDS011;9435;52.122;5.502;2022-07-10T05:41:05;10.73;;;1.80;;
18610;SDS011;9435;52.122;5.502;2022-07-10T05:43:32;9.50;;;1.85;;
18610;SDS011;9435;52.122;5.502;2022-07-10T05:45:59;9.63;;;2.00;;
18610;SDS011;9435;52.122;5.502;2022-07-10T05:48:26;10.30;;;1.80;;
18610;SDS011;9435;52.122;5.502;2022-07-10T05:50:53;11.30;;;2.00;;
18610;SDS011;9435;52.122;5.502;2022-07-10T05:53:20;8.75;;;1.70;;
18610;SDS011;9435;52.122;5.502;2022-07-10T05:55:49;7.30;;;1.55;;
18610;SDS011;9435;52.122;5.502;2022-07-10T05:58:16;8.70;;;1.80;;
18610;SDS011;9435;52.122;5.502;2022-07-10T06:00:43;9.68;;;2.10;;
18610;SDS011;9435;52.122;5.502;2022-07-10T06:03:11;8.77;;;1.73;;
18610;SDS011;9435;52.122;5.502;2022-07-10T06:05:38;9.38;;;1.90;;
18610;SDS011;9435;52.122;5.502;2022-07-10T06:08:05;7.10;;;1.60;;
18610;SDS011;9435;52.122;5.502;2022-07-10T06:10:32;9.45;;;1.90;;
18610;SDS011;9435;52.122;5.502;2022-07-10T06:13:00;11.27;;;1.80;;
18610;SDS011;9435;52.122;5.502;2022-07-10T06:15:27;10.38;;;2.15;;
18610;SDS011;9435;52.122;5.502;2022-07-10T06:17:56;11.23;;;1.65;;
18610;SDS011;9435;52.122;5.502;2022-07-10T06:20:23;8.82;;;1.58;;
18610;SDS011;9435;52.122;5.502;2022-07-10T06:22:51;11.77;;;1.83;;
18610;SDS011;9435;52.122;5.502;2022-07-10T06:25:18;8.35;;;1.75;;
18610;SDS011;9435;52.122;5.502;2022-07-10T06:27:45;6.30;;;1.67;;
18610;SDS011;9435;52.122;5.502;2022-07-10T06:30:14;12.30;;;1.92;;
18610;SDS011;9435;52.122;5.502;2022-07-10T06:32:41;7.57;;;1.80;;
18610;SDS011;9435;52.122;5.502;2022-07-10T06:35:09;8.35;;;1.60;;
18610;SDS011;9435;52.122;5.502;2022-07-10T06:37:36;6.45;;;1.60;;
18610;SDS011;9435;52.122;5.502;2022-07-10T06:40:04;8.68;;;1.73;;
18610;SDS011;9435;52.122;5.502;2022-07-10T06:42:32;9.27;;;1.52;;
18610;SDS011;9435;52.122;5.502;2022-07-10T06:44:59;7.15;;;1.85;;
18610;SDS011;9435;52.122;5.502;2022-07-10T06:47:27;9.30;;;1.70;;
18610;SDS011;9435;52.122;5.502;2022-07-10T06:50:12;8.30;;;1.60;;
18610;SDS011;9435;52.122;5.502;2022-07-10T06:52:39;8.25;;;1.73;;
18610;SDS011;9435;52.122;5.502;2022-07-10T06:55:06;7.13;;;1.90;;
18610;SDS011;9435;52.122;5.502;2022-07-10T06:57:34;6.57;;;1.50;;
18610;SDS011;9435;52.122;5.502;2022-07-10T07:00:01;9.20;;;1.50;;
18610;SDS011;9435;52.122;5.502;2022-07-10T07:02:31;8.25;;;1.70;;
18610;SDS011;9435;52.122;5.502;2022-07-10T07:04:59;9.20;;;1.73;;
18610;SDS011;9435;52.122;5.502;2022-07-10T07:07:26;9.18;;;1.80;;
18610;SDS011;9435;52.122;5.502;2022-07-10T07:09:53;7.57;;;1.90;;
18610;SDS011;9435;52.122;5.502;2022-07-10T07:12:20;10.50;;;1.80;;
18610;SDS011;9435;52.122;5.502;2022-07-10T07:14:47;5.32;;;1.40;;
18610;SDS011;9435;52.122;5.502;2022-07-10T07:17:14;8.68;;;1.60;;
18610;SDS011;9435;52.122;5.502;2022-07-10T07:19:48;10.90;;;1.70;;
18610;SDS011;9435;52.122;5.502;2022-07-10T07:22:32;6.15;;;1.40;;
18610;SDS011;9435;52.122;5.502;2022-07-10T07:25:17;8.82;;;1.75;;
18610;SDS011;9435;52.122;5.502;2022-07-10T07:27:44;7.40;;;1.60;;
18610;SDS011;9435;52.122;5.502;2022-07-10T07:30:12;7.65;;;1.48;;
18610;SDS011;9435;52.122;5.502;2022-07-10T07:32:41;7.15;;;1.58;;
18610;SDS011;9435;52.122;5.502;2022-07-10T07:35:10;8.68;;;1.70;;
18610;SDS011;9435;52.122;5.502;2022-07-10T07:37:40;6.70;;;1.98;;
18610;SDS011;9435;52.122;5.502;2022-07-10T07:40:08;7.60;;;1.40;;
18610;SDS011;9435;52.122;5.502;2022-07-10T07:42:37;5.78;;;1.50;;
18610;SDS011;9435;52.122;5.502;2022-07-10T07:45:04;10.15;;;1.80;;
18610;SDS011;9435;52.122;5.502;2022-07-10T07:47:42;5.15;;;1.60;;
18610;SDS011;9435;52.122;5.502;2022-07-10T07:50:12;7.05;;;1.50;;
18610;SDS011;9435;52.122;5.502;2022-07-10T07:52:40;7.05;;;1.67;;
18610;SDS011;9435;52.122;5.502;2022-07-10T07:55:08;9.52;;;1.60;;
18610;SDS011;9435;52.122;5.502;2022-07-10T07:57:35;5.95;;;1.40;;
18610;SDS011;9435;52.122;5.502;2022-07-10T08:00:03;7.20;;;1.50;;
18610;SDS011;9435;52.122;5.502;2022-07-10T08:02:31;5.85;;;1.63;;
18610;SDS011;9435;52.122;5.502;2022-07-10T08:04:58;6.25;;;1.70;;
18610;SDS011;9435;52.122;5.502;2022-07-10T08:07:33;6.50;;;1.52;;
18610;SDS011;9435;52.122;5.502;2022-07-10T08:10:01;5.72;;;1.60;;
18610;SDS011;9435;52.122;5.502;2022-07-10T08:12:28;4.82;;;1.55;;
18610;SDS011;9435;52.122;5.502;2022-07-10T08:14:55;4.05;;;1.40;;
18610;SDS011;9435;52.122;5.502;2022-07-10T08:17:23;4.88;;;1.50;;
18610;SDS011;9435;52.122;5.502;2022-07-10T08:19:50;5.03;;;1.40;;
18610;SDS011;9435;52.122;5.502;2022-07-10T08:22:17;8.82;;;1.65;;
18610;SDS011;9435;52.122;5.502;2022-07-10T08:24:45;6.47;;;1.45;;
18610;SDS011;9435;52.122;5.502;2022-07-10T08:27:13;7.43;;;1.67;;
18610;SDS011;9435;52.122;5.502;2022-07-10T08:29:41;7.20;;;1.45;;
18610;SDS011;9435;52.122;5.502;2022-07-10T08:32:08;5.75;;;1.80;;
18610;SDS011;9435;52.122;5.502;2022-07-10T08:34:35;5.22;;;1.60;;
18610;SDS011;9435;52.122;5.502;2022-07-10T08:37:02;4.03;;;1.42;;
18610;SDS011;9435;52.122;5.502;2022-07-10T08:39:30;6.75;;;1.60;;
18610;SDS011;9435;52.122;5.502;2022-07-10T08:41:59;5.15;;;1.60;;
18610;SDS011;9435;52.122;5.502;2022-07-10T08:44:26;4.70;;;1.50;;
18610;SDS011;9435;52.122;5.502;2022-07-10T08:46:54;3.67;;;1.55;;
18610;SDS011;9435;52.122;5.502;2022-07-10T08:49:22;6.68;;;1.60;;
18610;SDS011;9435;52.122;5.502;2022-07-10T08:51:56;4.32;;;1.42;;
18610;SDS011;9435;52.122;5.502;2022-07-10T08:54:25;5.45;;;1.60;;
18610;SDS011;9435;52.122;5.502;2022-07-10T08:56:56;6.68;;;1.60;;
18610;SDS011;9435;52.122;5.502;2022-07-10T08:59:25;4.95;;;1.80;;
18610;SDS011;9435;52.122;5.502;2022-07-10T09:01:53;4.22;;;1.40;;
18610;SDS011;9435;52.122;5.502;2022-07-10T09:04:21;3.60;;;1.42;;
18610;SDS011;9435;52.122;5.502;2022-07-10T09:06:49;4.20;;;1.30;;
18610;SDS011;9435;52.122;5.502;2022-07-10T09:09:18;4.28;;;1.52;;
18610;SDS011;9435;52.122;5.502;2022-07-10T09:11:46;3.28;;;1.30;;
18610;SDS011;9435;52.122;5.502;2022-07-10T09:14:14;5.50;;;1.70;;
18610;SDS011;9435;52.122;5.502;2022-07-10T09:16:44;4.13;;;1.42;;
18610;SDS011;9435;52.122;5.502;2022-07-10T09:19:16;4.10;;;1.40;;
18610;SDS011;9435;52.122;5.502;2022-07-10T09:21:45;5.07;;;1.52;;
18610;SDS011;9435;52.122;5.502;2022-07-10T09:24:12;4.38;;;1.30;;
18610;SDS011;9435;52.122;5.502;2022-07-10T09:26:42;4.95;;;1.42;;
18610;SDS011;9435;52.122;5.502;2022-07-10T09:29:14;6.05;;;1.38;;
18610;SDS011;9435;52.122;5.502;2022-07-10T09:31:49;4.82;;;1.30;;
18610;SDS011;9435;52.122;5.502;2022-07-10T09:34:17;3.00;;;1.38;;
18610;SDS011;9435;52.122;5.502;2022-07-10T09:36:44;4.53;;;1.60;;
18610;SDS011;9435;52.122;5.502;2022-07-10T09:39:11;5.47;;;1.40;;
18610;SDS011;9435;52.122;5.502;2022-07-10T09:41:38;5.88;;;1.38;;
18610;SDS011;9435;52.122;5.502;2022-07-10T09:44:06;6.00;;;1.30;;
18610;SDS011;9435;52.122;5.502;2022-07-10T09:46:34;3.38;;;1.45;;
18610;SDS011;9435;52.122;5.502;2022-07-10T09:49:04;5.00;;;1.30;;
18610;SDS011;9435;52.122;5.502;2022-07-10T09:51:35;2.53;;;1.10;;
18610;SDS011;9435;52.122;5.502;2022-07-10T09:54:04;4.95;;;1.27;;
18610;SDS011;9435;52.122;5.502;2022-07-10T09:59:18;3.90;;;1.23;;
18610;SDS011;9435;52.122;5.502;2022-07-10T10:01:46;4.57;;;1.40;;
18610;SDS011;9435;52.122;5.502;2022-07-10T10:04:16;2.70;;;1.00;;
18610;SDS011;9435;52.122;5.502;2022-07-10T10:06:45;3.83;;;1.40;;
18610;SDS011;9435;52.122;5.502;2022-07-10T10:09:18;3.08;;;1.27;;
18610;SDS011;9435;52.122;5.502;2022-07-10T10:11:49;2.80;;;1.15;;
18610;SDS011;9435;52.122;5.502;2022-07-10T10:14:26;3.40;;;1.27;;
18610;SDS011;9435;52.122;5.502;2022-07-10T10:16:55;5.88;;;1.25;;
18610;SDS011;9435;52.122;5.502;2022-07-10T10:19:24;1.90;;;1.00;;
18610;SDS011;9435;52.122;5.502;2022-07-10T10:22:09;3.95;;;1.20;;
18610;SDS011;9435;52.122;5.502;2022-07-10T10:24:39;3.33;;;1.20;;
18610;SDS011;9435;52.122;5.502;2022-07-10T10:27:06;2.38;;;1.20;;
18610;SDS011;9435;52.122;5.502;2022-07-10T10:29:35;3.25;;;1.40;;
18610;SDS011;9435;52.122;5.502;2022-07-10T10:32:04;4.03;;;1.30;;
18610;SDS011;9435;52.122;5.502;2022-07-10T10:34:39;4.38;;;1.40;;
18610;SDS011;9435;52.122;5.502;2022-07-10T10:40:03;3.33;;;1.30;;
18610;SDS011;9435;52.122;5.502;2022-07-10T10:42:32;3.50;;;1.30;;
18610;SDS011;9435;52.122;5.502;2022-07-10T10:47:58;3.67;;;1.30;;
18610;SDS011;9435;52.122;5.502;2022-07-10T10:50:38;4.55;;;1.50;;
18610;SDS011;9435;52.122;5.502;2022-07-10T10:53:13;4.88;;;1.70;;
18610;SDS011;9435;52.122;5.502;2022-07-10T10:55:54;4.57;;;1.48;;
18610;SDS011;9435;52.122;5.502;2022-07-10T10:58:50;3.95;;;1.40;;
18610;SDS011;9435;52.122;5.502;2022-07-10T11:01:25;3.35;;;1.30;;
18610;SDS011;9435;52.122;5.502;2022-07-10T11:04:13;6.43;;;1.52;;
18610;SDS011;9435;52.122;5.502;2022-07-10T11:06:43;4.07;;;1.45;;
18610;SDS011;9435;52.122;5.502;2022-07-10T11:09:27;4.22;;;1.50;;
18610;SDS011;9435;52.122;5.502;2022-07-10T11:11:58;2.78;;;1.10;;
18610;SDS011;9435;52.122;5.502;2022-07-10T11:14:26;3.05;;;1.10;;
18610;SDS011;9435;52.122;5.502;2022-07-10T11:16:54;3.42;;;1.20;;
18610;SDS011;9435;52.122;5.502;2022-07-10T11:19:22;2.20;;;1.13;;
18610;SDS011;9435;52.122;5.502;2022-07-10T11:21:55;3.80;;;1.13;;
18610;SDS011;9435;52.122;5.502;2022-07-10T11:24:33;4.30;;;1.10;;
18610;SDS011;9435;52.122;5.502;2022-07-10T11:27:15;4.90;;;1.25;;
18610;SDS011;9435;52.122;5.502;2022-07-10T11:29:58;3.28;;;1.20;;
18610;SDS011;9435;52.122;5.502;2022-07-10T11:32:25;3.50;;;1.10;;
18610;SDS011;9435;52.122;5.502;2022-07-10T11:34:52;5.65;;;1.25;;
18610;SDS011;9435;52.122;5.502;2022-07-10T11:37:21;4.18;;;1.15;;
18610;SDS011;9435;52.122;5.502;2022-07-10T11:39:56;3.55;;;1.30;;
18610;SDS011;9435;52.122;5.502;2022-07-10T11:42:47;6.07;;;1.10;;
18610;SDS011;9435;52.122;5.502;2022-07-10T11:45:25;4.38;;;1.33;;
18610;SDS011;9435;52.122;5.502;2022-07-10T11:47:58;3.78;;;1.15;;
18610;SDS011;9435;52.122;5.502;2022-07-10T11:50:26;2.97;;;1.33;;
18610;SDS011;9435;52.122;5.502;2022-07-10T11:53:01;5.75;;;1.30;;
18610;SDS011;9435;52.122;5.502;2022-07-10T11:55:31;5.40;;;1.65;;
18610;SDS011;9435;52.122;5.502;2022-07-10T11:58:12;5.32;;;1.60;;
18610;SDS011;9435;52.122;5.502;2022-07-10T12:00:42;3.13;;;1.20;;
18610;SDS011;9435;52.122;5.502;2022-07-10T12:03:16;6.60;;;1.40;;
18610;SDS011;9435;52.122;5.502;2022-07-10T12:05:48;3.90;;;1.40;;
18610;SDS011;9435;52.122;5.502;2022-07-10T12:08:18;4.68;;;1.42;;
18610;SDS011;9435;52.122;5.502;2022-07-10T12:10:46;3.80;;;1.25;;
18610;SDS011;9435;52.122;5.502;2022-07-10T12:13:14;2.08;;;1.27;;
18610;SDS011;9435;52.122;5.502;2022-07-10T12:15:47;4.57;;;1.45;;
18610;SDS011;9435;52.122;5.502;2022-07-10T12:18:20;4.72;;;1.50;;
18610;SDS011;9435;52.122;5.502;2022-07-10T12:21:01;3.97;;;1.40;;
18610;SDS011;9435;52.122;5.502;2022-07-10T12:23:52;3.05;;;1.20;;
18610;SDS011;9435;52.122;5.502;2022-07-10T12:26:22;3.55;;;1.30;;
18610;SDS011;9435;52.122;5.502;2022-07-10T12:29:04;2.20;;;1.25;;
18610;SDS011;9435;52.122;5.502;2022-07-10T12:31:37;3.53;;;1.17;;
18610;SDS011;9435;52.122;5.502;2022-07-10T12:34:05;2.53;;;1.10;;
18610;SDS011;9435;52.122;5.502;2022-07-10T12:36:42;5.78;;;1.55;;
18610;SDS011;9435;52.122;5.502;2022-07-10T12:42:23;5.57;;;1.30;;
18610;SDS011;9435;52.122;5.502;2022-07-10T12:45:30;3.55;;;1.20;;
18610;SDS011;9435;52.122;5.502;2022-07-10T12:48:30;3.97;;;1.20;;
18610;SDS011;9435;52.122;5.502;2022-07-10T12:51:45;3.97;;;1.33;;
18610;SDS011;9435;52.122;5.502;2022-07-10T13:12:12;3.25;;;0.98;;
18610;SDS011;9435;52.122;5.502;2022-07-10T13:28:01;3.08;;;1.13;;
18610;SDS011;9435;52.122;5.502;2022-07-10T13:30:45;3.45;;;1.10;;
18610;SDS011;9435;52.122;5.502;2022-07-10T13:33:13;4.68;;;1.30;;
18610;SDS011;9435;52.122;5.502;2022-07-10T13:35:44;3.70;;;1.13;;
18610;SDS011;9435;52.122;5.502;2022-07-10T13:38:12;2.95;;;1.10;;
18610;SDS011;9435;52.122;5.502;2022-07-10T13:40:46;3.65;;;1.20;;
18610;SDS011;9435;52.122;5.502;2022-07-10T13:43:15;2.75;;;1.02;;
18610;SDS011;9435;52.122;5.502;2022-07-10T13:45:46;2.40;;;1.02;;
18610;SDS011;9435;52.122;5.502;2022-07-10T13:48:15;4.32;;;1.15;;
18610;SDS011;9435;52.122;5.502;2022-07-10T13:50:52;3.20;;;1.10;;
18610;SDS011;9435;52.122;5.502;2022-07-10T13:53:28;3.15;;;1.10;;
18610;SDS011;9435;52.122;5.502;2022-07-10T13:55:57;4.57;;;1.55;;
18610;SDS011;9435;52.122;5.502;2022-07-10T14:01:42;3.75;;;1.10;;
18610;SDS011;9435;52.122;5.502;2022-07-10T14:04:10;3.13;;;1.20;;
18610;SDS011;9435;52.122;5.502;2022-07-10T14:06:42;5.03;;;1.45;;
18610;SDS011;9435;52.122;5.502;2022-07-10T14:09:12;4.50;;;1.50;;
18610;SDS011;9435;52.122;5.502;2022-07-10T14:11:44;3.13;;;1.20;;
18610;SDS011;9435;52.122;5.502;2022-07-10T14:14:12;3.10;;;1.30;;
18610;SDS011;9435;52.122;5.502;2022-07-10T14:16:39;3.13;;;1.13;;
18610;SDS011;9435;52.122;5.502;2022-07-10T14:19:09;3.75;;;1.25;;
18610;SDS011;9435;52.122;5.502;2022-07-10T14:21:36;6.15;;;1.60;;
18610;SDS011;9435;52.122;5.502;2022-07-10T14:24:05;3.88;;;1.20;;
18610;SDS011;9435;52.122;5.502;2022-07-10T14:26:32;2.65;;;1.20;;
18610;SDS011;9435;52.122;5.502;2022-07-10T14:29:00;3.58;;;1.17;;
18610;SDS011;9435;52.122;5.502;2022-07-10T14:31:28;3.00;;;1.20;;
18610;SDS011;9435;52.122;5.502;2022-07-10T14:33:56;3.15;;;1.30;;
18610;SDS011;9435;52.122;5.502;2022-07-10T14:36:27;3.33;;;1.23;;
18610;SDS011;9435;52.122;5.502;2022-07-10T14:38:57;4.82;;;1.20;;
18610;SDS011;9435;52.122;5.502;2022-07-10T14:41:25;3.90;;;1.30;;
18610;SDS011;9435;52.122;5.502;2022-07-10T14:43:52;4.43;;;1.20;;
18610;SDS011;9435;52.122;5.502;2022-07-10T14:46:28;3.38;;;1.30;;
18610;SDS011;9435;52.122;5.502;2022-07-10T14:49:05;3.83;;;1.42;;
18610;SDS011;9435;52.122;5.502;2022-07-10T14:51:33;3.00;;;1.52;;
18610;SDS011;9435;52.122;5.502;2022-07-10T14:54:04;2.63;;;1.30;;
18610;SDS011;9435;52.122;5.502;2022-07-10T14:56:34;3.80;;;1.60;;
18610;SDS011;9435;52.122;5.502;2022-07-10T14:59:10;4.07;;;1.08;;
18610;SDS011;9435;52.122;5.502;2022-07-10T15:01:42;3.85;;;1.35;;
18610;SDS011;9435;52.122;5.502;2022-07-10T15:04:17;2.00;;;1.10;;
18610;SDS011;9435;52.122;5.502;2022-07-10T15:06:46;5.43;;;1.38;;
18610;SDS011;9435;52.122;5.502;2022-07-10T15:09:18;4.45;;;1.30;;
18610;SDS011;9435;52.122;5.502;2022-07-10T15:11:46;2.13;;;1.30;;
18610;SDS011;9435;52.122;5.502;2022-07-10T15:14:23;5.22;;;1.33;;
18610;SDS011;9435;52.122;5.502;2022-07-10T15:16:54;5.15;;;1.42;;
18610;SDS011;9435;52.122;5.502;2022-07-10T15:19:27;4.43;;;1.40;;
18610;SDS011;9435;52.122;5.502;2022-07-10T15:21:57;5.78;;;1.50;;
18610;SDS011;9435;52.122;5.502;2022-07-10T15:24:28;4.72;;;1.50;;
18610;SDS011;9435;52.122;5.502;2022-07-10T15:26:56;4.22;;;1.13;;
18610;SDS011;9435;52.122;5.502;2022-07-10T15:29:23;2.75;;;1.20;;
18610;SDS011;9435;52.122;5.502;2022-07-10T15:31:53;4.35;;;1.58;;
18610;SDS011;9435;52.122;5.502;2022-07-10T15:34:21;3.88;;;1.70;;
18610;SDS011;9435;52.122;5.502;2022-07-10T15:36:49;5.00;;;1.55;;
18610;SDS011;9435;52.122;5.502;2022-07-10T15:39:16;5.78;;;1.50;;
18610;SDS011;9435;52.122;5.502;2022-07-10T15:41:44;4.00;;;1.50;;
18610;SDS011;9435;52.122;5.502;2022-07-10T15:44:11;4.65;;;1.40;;
18610;SDS011;9435;52.122;5.502;2022-07-10T15:46:39;4.90;;;1.63;;
18610;SDS011;9435;52.122;5.502;2022-07-10T15:49:06;6.65;;;1.48;;
18610;SDS011;9435;52.122;5.502;2022-07-10T15:51:35;2.72;;;1.30;;
18610;SDS011;9435;52.122;5.502;2022-07-10T15:54:04;4.05;;;1.50;;
18610;SDS011;9435;52.122;5.502;2022-07-10T15:56:31;8.13;;;1.80;;
18610;SDS011;9435;52.122;5.502;2022-07-10T15:58:58;3.78;;;1.60;;
18610;SDS011;9435;52.122;5.502;2022-07-10T16:01:26;4.00;;;1.40;;